Shenandoah National Park, Virginia
Current Conditions -  °F | °C
As of 3:55 AM on Wednesday 28 Jan 2015 (Local Time) from KLUA Reporting Station
Scattered Clouds Scattered Clouds  
Wind Chill: 25°   Ceiling: Unl
Heat Index: 25°   Visibility: 10mi
Dew Point: 14°   Wind: 0mph
Humidity: 64%   Direction: NA
Pressure: 30.09"   Gusts: NA
Location:  38.6496°N, 78.431°W
Report Text: KLUA 280855Z AUTO 00000KT 10SM SCT120 M04/M10 A3009 RMK AO2
Loading
Personal Weather Stations






























Interactive Weather Map New forecast layout! Learn more

10-Day Weather Forecast

Advertisements
Track Severe Weather on mobile